createdAt,value
2018-03-23T00:00:06.067Z,100606.45
2018-03-23T00:02:34.347Z,100604.46
2018-03-23T00:05:06.415Z,100608.41
2018-03-23T00:07:35.449Z,100603.21
2018-03-23T00:10:06.805Z,100601.89
2018-03-23T00:12:35.095Z,100599.11
2018-03-23T00:15:07.240Z,100601.15
2018-03-23T00:17:35.534Z,100594.36
2018-03-23T00:20:06.751Z,100590.39
2018-03-23T00:22:35.042Z,100591.19
2018-03-23T00:25:06.920Z,100593.31
2018-03-23T00:27:35.197Z,100580.68
2018-03-23T00:30:07.185Z,100584.89
2018-03-23T00:32:35.471Z,100578.76
2018-03-23T00:35:07.002Z,100586.37
2018-03-23T00:37:35.303Z,100579.25
2018-03-23T00:40:07.463Z,100583.41
2018-03-23T00:42:35.762Z,100583.91
2018-03-23T00:45:06.490Z,100578.20
2018-03-23T00:47:34.797Z,100581.80
2018-03-23T00:50:06.625Z,100579.02
2018-03-23T00:52:34.998Z,100580.00
2018-03-23T00:55:06.391Z,100578.55
2018-03-23T00:57:34.630Z,100571.97
2018-03-23T01:00:05.833Z,100566.17
2018-03-23T01:02:34.143Z,100570.84
2018-03-23T01:05:06.468Z,100569.88
2018-03-23T01:07:34.766Z,100567.33
2018-03-23T01:10:05.658Z,100570.23
2018-03-23T01:12:33.960Z,100565.64
2018-03-23T01:15:05.478Z,100561.55
2018-03-23T01:17:33.734Z,100557.81
2018-03-23T01:20:05.268Z,100561.09
2018-03-23T01:22:34.389Z,100550.30
2018-03-23T01:25:05.950Z,100544.71
2018-03-23T01:27:34.228Z,100554.61
2018-03-23T01:30:05.910Z,100545.71
2018-03-23T01:32:34.178Z,100543.08
2018-03-23T01:35:07.433Z,100546.25
2018-03-23T01:37:35.707Z,100539.34
2018-03-23T01:40:05.653Z,100538.48
2018-03-23T01:42:34.065Z,100536.10
2018-03-23T01:45:05.493Z,100531.02
2018-03-23T01:47:33.776Z,100522.48
2018-03-23T01:50:05.095Z,100527.39
2018-03-23T01:52:33.376Z,100517.06
2018-03-23T01:55:08.762Z,100522.16
2018-03-23T01:57:37.077Z,100517.39
2018-03-23T02:00:06.326Z,100516.67
2018-03-23T02:02:34.684Z,100507.78
2018-03-23T02:05:05.980Z,100518.91
2018-03-23T02:07:34.289Z,100508.95
2018-03-23T02:10:05.692Z,100509.06
2018-03-23T02:12:33.998Z,100503.16
2018-03-23T02:15:05.499Z,100499.98
2018-03-23T02:17:33.812Z,100487.33
2018-03-23T02:20:06.773Z,100487.58
2018-03-23T02:22:35.066Z,100487.40
2018-03-23T02:25:07.164Z,100489.45
2018-03-23T02:27:35.454Z,100484.27
2018-03-23T02:30:06.892Z,100487.58
2018-03-23T02:32:35.185Z,100486.30
2018-03-23T02:35:06.507Z,100478.61
2018-03-23T02:37:34.792Z,100479.50
2018-03-23T02:40:06.933Z,100474.44
2018-03-23T02:42:35.243Z,100478.03
2018-03-23T02:45:07.364Z,100470.06
2018-03-23T02:47:35.667Z,100473.84
2018-03-23T02:50:06.895Z,100469.89
2018-03-23T02:52:35.197Z,100464.73
2018-03-23T02:55:07.340Z,100461.20
2018-03-23T02:57:35.641Z,100465.80
2018-03-23T03:00:08.869Z,100467.74
2018-03-23T03:02:37.199Z,100468.28
2018-03-23T03:05:06.289Z,100460.28
2018-03-23T03:07:34.627Z,100461.84
2018-03-23T03:10:05.840Z,100461.06
2018-03-23T03:12:38.277Z,100457.50
2018-03-23T03:15:07.134Z,100447.66
2018-03-23T03:17:35.706Z,100444.14
2018-03-23T03:20:05.832Z,100445.80
2018-03-23T03:22:34.123Z,100442.53
2018-03-23T03:25:09.304Z,100439.90
2018-03-23T03:27:37.594Z,100440.43
2018-03-23T03:30:05.934Z,100440.20
2018-03-23T03:32:34.209Z,100432.76
2018-03-23T03:35:05.786Z,100436.42
2018-03-23T03:37:34.219Z,100432.54
2018-03-23T03:40:09.433Z,100432.30
2018-03-23T03:42:37.749Z,100426.06
2018-03-23T03:45:06.064Z,100425.57
2018-03-23T03:47:34.349Z,100421.16
2018-03-23T03:50:05.817Z,100426.84
2018-03-23T03:52:34.115Z,100422.34
2018-03-23T03:55:09.228Z,100422.58
2018-03-23T03:57:37.756Z,100411.66
2018-03-23T04:00:06.225Z,100417.64
2018-03-23T04:02:34.793Z,100415.47
2018-03-23T04:05:07.068Z,100413.27
2018-03-23T04:07:35.454Z,100405.30
2018-03-23T04:10:07.368Z,100407.45
2018-03-23T04:12:35.674Z,100407.20
2018-03-23T04:15:07.607Z,100403.96
2018-03-23T04:17:35.919Z,100397.56
2018-03-23T04:20:05.817Z,100394.75
2018-03-23T04:22:34.113Z,100401.50
2018-03-23T04:25:05.601Z,100392.90
2018-03-23T04:27:34.000Z,100398.05
2018-03-23T04:30:06.147Z,100393.70
2018-03-23T04:32:34.466Z,100392.92
2018-03-23T04:35:06.258Z,100396.44
2018-03-23T04:37:34.563Z,100395.09
2018-03-23T04:40:06.713Z,100395.73
2018-03-23T04:42:35.009Z,100388.97
2018-03-23T04:45:05.843Z,100398.05
2018-03-23T04:47:34.144Z,100392.25
2018-03-23T04:50:07.456Z,100389.52
2018-03-23T04:52:35.758Z,100395.12
2018-03-23T04:55:07.291Z,100392.78
2018-03-23T04:57:35.620Z,100390.65
2018-03-23T05:00:07.647Z,100385.86
2018-03-23T05:02:36.358Z,100384.02
2018-03-23T05:05:06.098Z,100384.16
2018-03-23T05:07:34.905Z,100379.75
2018-03-23T05:10:06.109Z,100379.50
2018-03-23T05:12:34.427Z,100378.43
2018-03-23T05:15:06.474Z,100380.75
2018-03-23T05:17:34.758Z,100372.68
2018-03-23T05:20:06.868Z,100374.70
2018-03-23T05:22:35.159Z,100369.44
2018-03-23T05:25:07.601Z,100373.45
2018-03-23T05:27:35.907Z,100366.92
2018-03-23T05:30:05.895Z,100375.66
2018-03-23T05:32:34.181Z,100369.08
2018-03-23T05:35:05.742Z,100370.16
2018-03-23T05:37:34.028Z,100369.09
2018-03-23T05:40:05.508Z,100366.03
2018-03-23T05:42:33.889Z,100367.88
2018-03-23T05:45:09.021Z,100361.66
2018-03-23T05:47:37.296Z,100360.48
2018-03-23T05:50:06.059Z,100365.71
2018-03-23T05:52:34.339Z,100367.03
2018-03-23T05:55:05.716Z,100367.84
2018-03-23T05:57:34.022Z,100370.37
2018-03-23T06:00:05.363Z,100363.22
2018-03-23T06:02:33.974Z,100360.56
2018-03-23T06:05:09.022Z,100365.50
2018-03-23T06:07:37.358Z,100365.56
2018-03-23T06:10:06.058Z,100364.25
2018-03-23T06:12:34.368Z,100361.69
2018-03-23T06:15:05.747Z,100362.04
2018-03-23T06:17:34.051Z,100367.48
2018-03-23T06:20:05.811Z,100364.42
2018-03-23T06:22:34.105Z,100365.67
2018-03-23T06:25:07.098Z,100361.56
2018-03-23T06:27:35.645Z,100361.50
2018-03-23T06:30:05.899Z,100364.95
2018-03-23T06:32:34.685Z,100356.13
2018-03-23T06:35:05.933Z,100358.63
2018-03-23T06:37:34.226Z,100358.14
2018-03-23T06:40:09.368Z,100354.74
2018-03-23T06:42:37.674Z,100355.81
2018-03-23T06:45:06.731Z,100353.92
2018-03-23T06:47:35.134Z,100361.34
2018-03-23T06:50:06.860Z,100361.52
2018-03-23T06:52:35.174Z,100359.70
2018-03-23T06:55:07.315Z,100357.22
2018-03-23T06:57:35.621Z,100357.58
2018-03-23T07:00:07.726Z,100355.76
2018-03-23T07:02:36.454Z,100352.42
2018-03-23T07:05:07.992Z,100355.66
2018-03-23T07:07:36.331Z,100350.88
2018-03-23T07:10:06.466Z,100353.44
2018-03-23T07:12:34.754Z,100349.66
2018-03-23T07:15:06.883Z,100351.40
2018-03-23T07:17:35.173Z,100350.73
2018-03-23T07:20:05.989Z,100345.25
2018-03-23T07:22:34.271Z,100353.23
2018-03-23T07:25:05.770Z,100358.50
2018-03-23T07:27:34.233Z,100354.27
2018-03-23T07:30:05.982Z,100353.42
2018-03-23T07:32:34.285Z,100360.38
2018-03-23T07:35:05.754Z,100357.98
2018-03-23T07:37:34.046Z,100350.75
2018-03-23T07:40:07.356Z,100348.09
2018-03-23T07:42:36.567Z,100340.39
2018-03-23T07:45:06.517Z,100358.16
2018-03-23T07:47:34.817Z,100345.41
2018-03-23T07:50:07.256Z,100325.80
2018-03-23T07:52:35.592Z,100349.84
2018-03-23T07:55:07.353Z,100344.75
2018-03-23T07:57:35.651Z,100342.70
2018-03-23T08:00:07.225Z,100345.64
2018-03-23T08:02:35.570Z,100337.39
2018-03-23T08:05:07.477Z,100334.23
2018-03-23T08:07:35.790Z,100340.45
2018-03-23T08:10:07.772Z,100335.23
2018-03-23T08:12:36.075Z,100335.77
2018-03-23T08:15:07.296Z,100329.09
2018-03-23T08:17:35.615Z,100332.64
2018-03-23T08:20:07.449Z,100331.81
2018-03-23T08:22:35.809Z,100330.83
2018-03-23T08:25:07.450Z,100323.16
2018-03-23T08:27:35.842Z,100318.13
2018-03-23T08:30:08.260Z,100311.97
2018-03-23T08:32:36.569Z,100298.48
2018-03-23T08:35:06.283Z,100290.40
2018-03-23T08:37:34.557Z,100296.05
2018-03-23T08:40:09.759Z,100294.13
2018-03-23T08:42:38.082Z,100284.25
2018-03-23T08:45:06.405Z,100275.41
2018-03-23T08:47:34.790Z,100269.49
2018-03-23T08:50:06.181Z,100268.86
2018-03-23T08:52:34.778Z,100272.05
2018-03-23T08:55:06.364Z,100271.63
2018-03-23T08:57:34.652Z,100275.39
2018-03-23T09:00:06.873Z,100275.98
2018-03-23T09:02:35.153Z,100266.72
2018-03-23T09:05:06.143Z,100261.44
2018-03-23T09:07:34.407Z,100259.98
2018-03-23T09:10:07.734Z,100252.95
2018-03-23T09:12:36.015Z,100258.73
2018-03-23T09:15:07.369Z,100246.05
2018-03-23T09:17:35.911Z,100247.67
2018-03-23T09:20:07.963Z,100242.89
2018-03-23T09:22:36.800Z,100235.95
2018-03-23T09:25:08.109Z,100241.38
2018-03-23T09:27:36.380Z,100228.84
2018-03-23T09:30:06.532Z,100230.75
2018-03-23T09:32:34.830Z,100224.34
2018-03-23T09:35:06.936Z,100224.16
2018-03-23T09:37:35.221Z,100224.61
2018-03-23T09:40:06.464Z,100218.04
2018-03-23T09:42:34.912Z,100216.58
2018-03-23T09:45:07.453Z,100207.80
2018-03-23T09:47:35.762Z,100206.55
2018-03-23T09:50:07.806Z,100197.73
2018-03-23T09:52:36.116Z,100196.77
2018-03-23T09:55:09.233Z,100191.87
2018-03-23T09:57:38.012Z,100188.02
2018-03-23T10:00:06.278Z,100192.55
2018-03-23T10:02:34.664Z,100192.41
2018-03-23T10:05:05.995Z,100182.11
2018-03-23T10:07:34.372Z,100176.61
2018-03-23T10:10:05.849Z,100179.83
2018-03-23T10:12:34.129Z,100174.67
2018-03-23T10:15:09.273Z,100168.34
2018-03-23T10:17:37.553Z,100174.45
2018-03-23T10:20:06.481Z,100164.80
2018-03-23T10:22:34.943Z,100156.98
2018-03-23T10:25:06.256Z,100151.97
2018-03-23T10:27:34.699Z,100140.66
2018-03-23T10:30:06.116Z,100141.03
2018-03-23T10:32:34.420Z,100135.53
2018-03-23T10:35:06.071Z,100135.34
2018-03-23T10:37:34.380Z,100125.39
2018-03-23T10:40:06.597Z,100130.26
2018-03-23T10:42:35.174Z,100125.02
2018-03-23T10:45:07.341Z,100115.67
2018-03-23T10:47:35.628Z,100111.36
2018-03-23T10:50:07.635Z,100110.73
2018-03-23T10:52:35.912Z,100104.09
2018-03-23T10:55:08.085Z,100095.33
2018-03-23T10:57:36.850Z,100090.44
2018-03-23T11:00:06.286Z,100085.00
2018-03-23T11:02:44.696Z,100084.27
2018-03-23T11:05:12.989Z,100080.83
2018-03-23T11:07:41.755Z,100065.13
2018-03-23T11:10:10.029Z,100052.06
2018-03-23T11:12:38.318Z,100065.72
2018-03-23T11:15:06.653Z,100061.17
2018-03-23T11:17:35.962Z,100059.63
2018-03-23T11:20:07.703Z,100046.44
2018-03-23T11:22:35.974Z,100057.84
2018-03-23T11:25:08.541Z,100061.80
2018-03-23T11:27:36.854Z,100047.85
2018-03-23T11:30:06.278Z,100048.66
2018-03-23T11:32:34.606Z,100041.36
2018-03-23T11:35:06.109Z,100040.17
2018-03-23T11:37:34.430Z,100031.95
2018-03-23T11:40:05.815Z,100029.55
2018-03-23T11:42:34.375Z,100026.77
2018-03-23T11:45:08.924Z,100023.92
2018-03-23T11:47:37.237Z,100015.70
2018-03-23T11:50:06.472Z,100014.98
2018-03-23T11:52:34.846Z,100020.05
2018-03-23T11:55:06.320Z,100014.33
2018-03-23T11:57:34.626Z,100012.62
2018-03-23T12:00:06.992Z,100010.34
2018-03-23T12:02:35.575Z,99999.20
2018-03-23T12:07:35.203Z,99994.86
2018-03-23T12:10:07.037Z,99995.38
2018-03-23T12:12:35.344Z,99996.34
2018-03-23T12:15:07.277Z,99997.27
2018-03-23T12:17:35.616Z,99990.10
2018-03-23T12:20:07.765Z,99986.69
2018-03-23T12:22:36.059Z,99974.74
2018-03-23T12:25:07.428Z,99980.12
2018-03-23T12:27:35.756Z,99982.00
2018-03-23T12:30:06.277Z,99970.70
2018-03-23T12:32:34.585Z,99968.09
2018-03-23T12:35:07.042Z,99957.94
2018-03-23T12:37:35.414Z,99963.64
2018-03-23T12:40:06.660Z,99959.23
2018-03-23T12:42:34.918Z,99962.52
2018-03-23T12:45:08.870Z,99962.84
2018-03-23T12:47:37.200Z,99954.58
2018-03-23T12:50:06.741Z,99956.24
2018-03-23T12:52:35.180Z,99950.39
2018-03-23T12:55:07.863Z,99959.89
2018-03-23T12:57:36.145Z,99961.09
2018-03-23T13:00:09.600Z,99955.83
2018-03-23T13:02:37.877Z,99951.67
2018-03-23T13:05:06.571Z,99949.53
2018-03-23T13:07:35.069Z,99946.64
2018-03-23T13:10:07.012Z,99943.82
2018-03-23T13:12:35.381Z,99935.77
2018-03-23T13:15:07.313Z,99949.67
2018-03-23T13:17:35.719Z,99946.77
2018-03-23T13:20:06.669Z,99946.32
2018-03-23T13:22:35.028Z,99954.46
2018-03-23T13:25:06.409Z,99950.72
2018-03-23T13:27:34.991Z,99951.14
2018-03-23T13:30:08.937Z,99945.30
2018-03-23T13:32:37.424Z,99935.70
2018-03-23T13:35:06.734Z,99942.23
2018-03-23T13:37:35.099Z,99934.39
2018-03-23T13:40:08.986Z,99931.75
2018-03-23T13:42:37.277Z,99925.52
2018-03-23T13:45:06.989Z,99919.35
2018-03-23T13:47:35.275Z,99921.48
2018-03-23T13:50:06.649Z,99917.46
2018-03-23T13:52:35.694Z,99918.17
2018-03-23T13:55:07.018Z,99928.55
2018-03-23T13:57:35.318Z,99922.92
2018-03-23T14:00:07.453Z,99925.02
2018-03-23T14:02:35.749Z,99924.16
2018-03-23T14:05:06.380Z,99923.53
2018-03-23T14:07:34.956Z,99922.79
2018-03-23T14:10:09.092Z,99917.51
2018-03-23T14:12:37.391Z,99912.70
2018-03-23T14:15:06.746Z,99906.95
2018-03-23T14:17:35.037Z,99896.13
2018-03-23T14:20:08.947Z,99891.58
2018-03-23T14:22:37.229Z,99893.46
2018-03-23T14:25:06.623Z,99893.13
2018-03-23T14:27:34.916Z,99892.84
2018-03-23T14:30:09.942Z,99899.57
2018-03-23T14:32:38.228Z,99906.15
2018-03-23T14:35:06.505Z,99899.36
2018-03-23T14:37:34.834Z,99892.91
2018-03-23T14:40:06.371Z,99897.39
2018-03-23T14:42:34.669Z,99891.68
2018-03-23T14:45:06.842Z,99898.12
2018-03-23T14:47:35.130Z,99891.14
2018-03-23T14:50:09.043Z,99901.20
2018-03-23T14:52:37.392Z,99893.63
2018-03-23T14:55:06.976Z,99898.30
2018-03-23T14:57:35.282Z,99899.76
2018-03-23T15:00:07.460Z,99896.04
2018-03-23T15:02:35.757Z,99893.45
2018-03-23T15:05:07.212Z,99892.94
2018-03-23T15:07:35.589Z,99893.53
2018-03-23T15:10:07.694Z,99635.97
2018-03-23T15:12:36.125Z,99881.66
2018-03-23T15:15:08.238Z,99896.56
2018-03-23T15:17:36.623Z,99891.40
2018-03-23T15:20:07.061Z,99892.27
2018-03-23T15:22:35.376Z,99886.44
2018-03-23T15:25:07.213Z,99891.38
2018-03-23T15:27:35.494Z,99890.52
2018-03-23T15:30:07.542Z,99884.73
2018-03-23T15:32:35.801Z,99881.64
2018-03-23T15:35:06.561Z,99876.72
2018-03-23T15:37:34.803Z,99877.39
2018-03-23T15:40:08.294Z,99877.11
2018-03-23T15:42:36.585Z,99878.06
2018-03-23T15:45:09.673Z,99876.02
2018-03-23T15:47:37.951Z,99874.22
2018-03-23T15:50:07.173Z,99870.13
2018-03-23T15:52:35.436Z,99868.33
2018-03-23T15:55:05.678Z,99868.12
2018-03-23T15:57:34.240Z,99871.14
2018-03-23T16:00:06.202Z,99869.48
2018-03-23T16:02:34.500Z,99860.06
2018-03-23T16:05:05.760Z,99866.45
2018-03-23T16:07:34.021Z,99859.62
2018-03-23T16:10:09.055Z,99856.11
2018-03-23T16:12:37.320Z,99858.53
2018-03-23T16:15:05.597Z,99857.84
2018-03-23T16:17:34.091Z,99860.15
2018-03-23T16:20:06.386Z,99849.73
2018-03-23T16:22:34.677Z,99853.14
2018-03-23T16:25:07.460Z,99850.36
2018-03-23T16:27:35.764Z,99856.84
2018-03-23T16:30:07.233Z,99854.33
2018-03-23T16:32:35.569Z,99854.91
2018-03-23T16:35:05.538Z,99845.16
2018-03-23T16:37:33.816Z,99854.88
2018-03-23T16:40:05.175Z,99854.94
2018-03-23T16:42:33.764Z,99863.27
2018-03-23T16:45:05.700Z,99860.55
2018-03-23T16:47:34.008Z,99858.50
2018-03-23T16:50:05.420Z,99849.25
2018-03-23T16:52:33.699Z,99852.58
2018-03-23T16:55:08.969Z,99851.25
2018-03-23T16:57:37.271Z,99846.27
2018-03-23T17:00:05.610Z,99846.35
2018-03-23T17:02:33.929Z,99847.97
2018-03-23T17:05:05.396Z,99849.32
2018-03-23T17:07:33.682Z,99855.31
2018-03-23T17:10:05.021Z,99853.28
2018-03-23T17:12:33.381Z,99856.53
2018-03-23T17:15:05.390Z,99848.69
2018-03-23T17:17:33.668Z,99843.63
2018-03-23T17:20:08.811Z,99846.60
2018-03-23T17:22:37.094Z,99845.14
2018-03-23T17:25:06.485Z,99847.18
2018-03-23T17:27:35.046Z,99850.02
2018-03-23T17:30:06.486Z,99853.77
2018-03-23T17:32:34.786Z,99859.08
2018-03-23T17:35:05.813Z,99855.07
2018-03-23T17:37:34.098Z,99859.23
2018-03-23T17:40:09.288Z,99852.27
2018-03-23T17:42:37.568Z,99857.91
2018-03-23T17:45:05.862Z,99855.06
2018-03-23T17:47:34.127Z,99859.42
2018-03-23T17:50:07.047Z,99851.36
2018-03-23T17:52:35.321Z,99858.52
2018-03-23T17:55:05.846Z,99849.66
2018-03-23T17:57:34.178Z,99825.02
2018-03-23T18:00:08.313Z,99845.42
2018-03-23T18:02:36.815Z,99850.63
2018-03-23T18:05:06.426Z,99857.00
2018-03-23T18:07:34.705Z,99852.98
2018-03-23T18:10:06.695Z,99853.44
2018-03-23T18:12:34.987Z,99849.90
2018-03-23T18:15:06.846Z,99849.09
2018-03-23T18:17:35.173Z,99850.75
2018-03-23T18:20:06.385Z,99844.63
2018-03-23T18:22:35.028Z,99845.38
2018-03-23T18:25:07.029Z,99846.45
2018-03-23T18:27:35.366Z,99846.03
2018-03-23T18:30:06.791Z,99846.36
2018-03-23T18:32:35.381Z,99844.17
2018-03-23T18:35:07.386Z,99837.79
2018-03-23T18:37:36.592Z,99838.05
2018-03-23T18:40:06.297Z,99833.38
2018-03-23T18:42:35.101Z,99837.66
2018-03-23T18:45:07.141Z,99833.02
2018-03-23T18:47:35.410Z,99834.49
2018-03-23T18:50:07.005Z,99840.16
2018-03-23T18:52:35.442Z,99837.96
2018-03-23T18:55:06.671Z,99839.73
2018-03-23T18:57:35.005Z,99843.20
2018-03-23T19:00:07.143Z,99839.63
2018-03-23T19:02:35.425Z,99846.20
2018-03-23T19:05:07.515Z,99843.11
2018-03-23T19:07:35.800Z,99842.31
2018-03-23T19:10:05.906Z,99839.47
2018-03-23T19:12:34.185Z,99843.06
2018-03-23T19:15:09.227Z,99840.13
2018-03-23T19:17:37.525Z,99831.98
2018-03-23T19:20:05.998Z,99832.52
2018-03-23T19:22:35.072Z,99830.91
2018-03-23T19:25:07.104Z,99834.23
2018-03-23T19:27:35.438Z,99828.27
2018-03-23T19:30:07.020Z,99830.55
2018-03-23T19:32:35.298Z,99830.48
2018-03-23T19:35:06.638Z,99827.92
2018-03-23T19:37:34.936Z,99828.56
2018-03-23T19:40:06.362Z,99831.84
2018-03-23T19:42:34.682Z,99823.77
2018-03-23T19:45:06.808Z,99827.36
2018-03-23T19:47:35.106Z,99817.61
2018-03-23T19:50:06.465Z,99817.87
2018-03-23T19:52:34.758Z,99813.75
2018-03-23T19:55:05.789Z,99805.44
2018-03-23T19:57:34.147Z,99803.84
2018-03-23T20:00:05.534Z,99797.48
2018-03-23T20:02:34.041Z,99801.31
2018-03-23T20:05:05.981Z,99800.45
2018-03-23T20:07:34.277Z,99794.17
2018-03-23T20:10:05.636Z,99798.83
2018-03-23T20:12:33.912Z,99788.61
2018-03-23T20:15:05.165Z,99793.34
2018-03-23T20:17:39.054Z,99791.17
2018-03-23T20:20:13.042Z,99791.98
2018-03-23T20:22:41.509Z,99791.77
2018-03-23T20:25:09.826Z,99785.05
2018-03-23T20:27:43.662Z,99789.02
2018-03-23T20:30:11.968Z,99786.94
2018-03-23T20:32:40.276Z,99785.46
2018-03-23T20:35:08.596Z,99773.84
2018-03-23T20:37:36.880Z,99775.16
2018-03-23T20:40:06.967Z,99780.31
2018-03-23T20:42:36.271Z,99779.61
2018-03-23T20:45:07.232Z,99771.27
2018-03-23T20:47:35.717Z,99769.25
2018-03-23T20:50:07.356Z,99773.59
2018-03-23T20:52:35.649Z,99775.56
2018-03-23T20:55:07.086Z,99763.52
2018-03-23T20:57:35.414Z,99766.10
2018-03-23T21:00:06.832Z,99773.55
2018-03-23T21:02:35.172Z,99768.83
2018-03-23T21:05:07.293Z,99771.66
2018-03-23T21:07:35.599Z,99766.02
2018-03-23T21:10:07.043Z,99770.70
2018-03-23T21:12:35.395Z,99772.41
2018-03-23T21:15:06.623Z,99769.45
2018-03-23T21:17:35.007Z,99760.40
2018-03-23T21:20:05.826Z,99756.69
2018-03-23T21:22:34.143Z,99753.09
2018-03-23T21:25:06.253Z,99753.90
2018-03-23T21:27:34.647Z,99748.70
2018-03-23T21:30:06.708Z,99755.44
2018-03-23T21:32:35.077Z,99741.02
2018-03-23T21:35:06.819Z,99739.98
2018-03-23T21:37:35.219Z,99730.69
2018-03-23T21:40:05.898Z,99734.09
2018-03-23T21:42:34.194Z,99734.13
2018-03-23T21:45:05.667Z,99732.33
2018-03-23T21:47:33.989Z,99731.05
2018-03-23T21:50:05.347Z,99722.83
2018-03-23T21:52:34.134Z,99725.19
2018-03-23T21:55:06.180Z,99722.94
2018-03-23T21:57:35.023Z,99721.73
2018-03-23T22:00:05.884Z,99720.10
2018-03-23T22:02:34.152Z,99725.39
2018-03-23T22:05:05.776Z,99723.50
2018-03-23T22:07:34.062Z,99714.52
2018-03-23T22:10:07.011Z,99711.48
2018-03-23T22:12:35.322Z,99717.02
2018-03-23T22:15:07.417Z,99721.46
2018-03-23T22:17:35.982Z,99715.09
2018-03-23T22:20:10.025Z,99722.92
2018-03-23T22:22:38.300Z,99710.87
2018-03-23T22:25:06.598Z,99714.27
2018-03-23T22:27:35.002Z,99708.35
2018-03-23T22:30:05.961Z,99715.45
2018-03-23T22:32:34.244Z,99707.95
2018-03-23T22:35:05.793Z,99708.31
2018-03-23T22:37:34.209Z,99699.57
2018-03-23T22:40:05.761Z,99710.02
2018-03-23T22:42:34.026Z,99703.58
2018-03-23T22:45:05.402Z,99696.98
2018-03-23T22:47:33.652Z,99698.77
2018-03-23T22:50:05.566Z,99701.58
2018-03-23T22:52:33.854Z,99695.15
2018-03-23T22:55:08.892Z,99686.14
2018-03-23T22:57:37.170Z,99685.53
2018-03-23T23:00:06.398Z,99680.13
2018-03-23T23:02:35.659Z,99676.38
2018-03-23T23:05:07.130Z,99677.89
2018-03-23T23:07:35.408Z,99676.99
2018-03-23T23:10:07.417Z,99672.08
2018-03-23T23:12:35.689Z,99676.98
2018-03-23T23:15:08.618Z,99679.53
2018-03-23T23:17:36.893Z,99667.56
2018-03-23T23:20:08.125Z,99671.06
2018-03-23T23:22:36.535Z,99676.52
2018-03-23T23:25:08.896Z,99665.64
2018-03-23T23:27:37.200Z,99650.89
2018-03-23T23:30:06.505Z,99673.27
2018-03-23T23:32:34.846Z,99669.16
2018-03-23T23:35:06.815Z,99671.00
2018-03-23T23:37:35.116Z,99666.00
2018-03-23T23:40:06.762Z,99662.88
2018-03-23T23:42:35.064Z,99659.56
2018-03-23T23:45:07.153Z,99653.42
2018-03-23T23:47:35.448Z,99648.10
2018-03-23T23:50:07.221Z,99647.02
2018-03-23T23:52:35.574Z,99640.00
2018-03-23T23:55:07.711Z,99634.36
2018-03-23T23:57:36.010Z,99628.69
